KHHW

Stan Stamper Municipal Airport

Hugo, Oklahoma, USA
METAR KHHW 220415Z AUTO 14014G18KT 10SM SCT027 OVC034 09/02 A2995 RMK AO2 T00870021
Observed Flight Rules
Jan-22 @ 04:15 UTC (30 minutes ago) Visual Flight Rules
Wind Visibility Clouds
140° at 14 knots
 Gusting to 18 knots
10 miles
  • Scattered at 2,700' AGL
  • Overcast at 3,400' AGL
Temperatures Readings
Current 9°C / 48°F
Dewpoint 2°C / 36°F
Humidity 62%
Altimeter 29.95" Hg
Pressure 1014.22 hPa
Elevation 144
METAR KHHW 220415Z AUTO 14014G18KT 10SM SCT027 OVC034 09/02 A2995 RMK AO2 T00870021
Observed Flight Rules
Jan-22 @ 04:15 UTC
(30 minutes ago)
VFR
Wind Visibility
140° at 14 knots
 Gusting to 18 knots
10 miles
Clouds
  • Scattered at 2,700' AGL
  • Overcast at 3,400' AGL
Temperature Dewpoint
9°C / 48°F 2°C / 36°F
Humidity Altimeter Pressure
62% 29.95" Hg 1014.22 hPa